Time;durP1;ratioP1;P1;durP2;ratioP2;P2;SDS_P1;SDS_P2;PMS_P1;PMS_P2;Temp;Humidity;BMP_temperature;BMP_pressure;BME280_temperature;BME280_humidity;BME280_pressure;Samples;Min_cycle;Max_cycle;Signal;HPM_P1;HPM_P2
2021/12/12 00:00:45;;;;;;;11.48;4.95;;;;;;;3.86;72.22;99701.69;2625569;54;20046;-70
2021/12/12 00:03:31;;;;;;;14.10;5.80;;;;;;;3.90;72.27;99700.47;2625610;39;20461;-70
2021/12/12 00:06:03;;;;;;;13.25;5.72;;;;;;;3.90;71.76;99695.25;2626060;54;20022;-70
2021/12/12 00:08:33;;;;;;;15.55;5.97;;;;;;;3.92;71.66;99695.97;2625703;54;20034;-70
2021/12/12 00:11:11;;;;;;;16.90;6.57;;;;;;;3.94;71.91;99696.63;2625241;54;20038;-70
2021/12/12 00:13:46;;;;;;;16.83;7.35;;;;;;;3.91;71.90;99700.31;2624590;54;20026;-70
2021/12/12 00:16:16;;;;;;;11.32;5.88;;;;;;;3.89;72.04;99709.28;2625147;54;20097;-71
2021/12/12 00:18:47;;;;;;;11.60;5.20;;;;;;;3.93;71.51;99710.69;2623685;54;20029;-69
2021/12/12 00:21:23;;;;;;;13.55;5.97;;;;;;;3.89;71.52;99710.09;2623840;54;20125;-69
2021/12/12 00:23:53;;;;;;;11.35;6.00;;;;;;;3.90;71.72;99711.75;2625460;54;20098;-69
2021/12/12 00:26:25;;;;;;;18.42;5.43;;;;;;;3.91;71.89;99709.97;2624827;54;20022;-70
2021/12/12 00:28:55;;;;;;;16.17;6.03;;;;;;;3.91;71.75;99723.88;2625449;54;20030;-70
2021/12/12 00:31:27;;;;;;;12.45;5.30;;;;;;;3.90;71.67;99726.63;2625218;54;20027;-70
2021/12/12 00:33:59;;;;;;;12.27;4.90;;;;;;;3.89;71.81;99719.75;2625486;54;20054;-70
2021/12/12 00:36:32;;;;;;;16.77;5.35;;;;;;;3.96;71.50;99736.59;2625752;54;20037;-68
2021/12/12 00:39:07;;;;;;;12.90;5.47;;;;;;;4.04;71.64;99738.56;2626317;54;20041;-69
2021/12/12 00:41:52;;;;;;;10.27;5.43;;;;;;;4.01;71.50;99733.59;2625435;54;20027;-69
2021/12/12 00:44:23;;;;;;;8.25;4.78;;;;;;;4.04;71.22;99739.41;2626148;54;20154;-69
2021/12/12 00:46:53;;;;;;;11.95;5.65;;;;;;;4.03;71.52;99747.38;2625819;54;20030;-68
2021/12/12 00:49:24;;;;;;;10.82;5.63;;;;;;;4.05;71.47;99742.84;2625450;54;20046;-68
2021/12/12 00:51:54;;;;;;;13.05;5.47;;;;;;;4.03;71.29;99732.50;2625414;54;20046;-69
2021/12/12 00:54:30;;;;;;;8.98;5.07;;;;;;;4.06;71.37;99724.41;2626084;54;20022;-68
2021/12/12 00:57:05;;;;;;;11.70;5.28;;;;;;;4.09;71.17;99718.09;2625759;54;20721;-70
2021/12/12 00:59:36;;;;;;;14.25;5.25;;;;;;;4.02;71.28;99711.69;2626264;54;20038;-68
2021/12/12 01:02:08;;;;;;;11.15;4.85;;;;;;;3.95;70.96;99721.84;2623352;54;20037;-69
2021/12/12 01:04:41;;;;;;;9.68;5.13;;;;;;;3.94;71.07;99713.16;2624899;54;20022;-70
2021/12/12 01:07:16;;;;;;;13.25;4.80;;;;;;;3.89;71.20;99715.34;2625876;54;20050;-70
2021/12/12 01:09:52;;;;;;;15.75;4.78;;;;;;;3.89;71.16;99719.75;2626383;54;20035;-69
2021/12/12 01:12:28;;;;;;;13.45;5.13;;;;;;;3.88;70.81;99716.31;2626214;54;20026;-68
2021/12/12 01:15:02;;;;;;;9.65;4.22;;;;;;;3.94;71.21;99710.53;2626013;54;20043;-68
2021/12/12 01:17:37;;;;;;;8.38;4.22;;;;;;;3.98;71.10;99708.50;2626240;54;20030;-71
2021/12/12 01:20:13;;;;;;;17.20;5.28;;;;;;;4.04;70.81;99715.00;2626201;54;20055;-68
2021/12/12 01:22:43;;;;;;;10.35;4.20;;;;;;;3.96;70.69;99713.88;2626361;54;20033;-68
2021/12/12 01:25:17;;;;;;;12.18;4.10;;;;;;;3.90;70.92;99716.16;2626278;54;20031;-68
2021/12/12 01:27:50;;;;;;;7.70;3.95;;;;;;;3.95;71.13;99727.91;2624019;54;20026;-69
2021/12/12 01:30:21;;;;;;;12.83;4.13;;;;;;;3.91;70.75;99734.34;2622848;54;20037;-69
2021/12/12 01:32:53;;;;;;;10.85;4.22;;;;;;;3.90;70.81;99726.63;2622763;46;20050;-69
2021/12/12 01:35:26;;;;;;;9.02;4.05;;;;;;;3.90;70.88;99734.47;2621870;47;20022;-70
2021/12/12 01:40:45;;;;;;;9.70;3.90;;;;;;;3.91;70.97;99739.56;2623562;54;20073;-70
2021/12/12 01:43:22;;;;;;;11.73;4.40;;;;;;;3.83;71.06;99747.22;2622802;54;20030;-69
2021/12/12 01:46:00;;;;;;;9.55;3.70;;;;;;;3.81;71.08;99735.25;2623662;54;20081;-68
2021/12/12 01:48:34;;;;;;;10.85;4.30;;;;;;;3.83;70.84;99742.00;2623557;54;20553;-68
2021/12/12 01:51:07;;;;;;;7.40;3.30;;;;;;;3.83;71.23;99751.63;2624102;54;20037;-68
2021/12/12 01:53:44;;;;;;;12.20;5.20;;;;;;;3.81;71.03;99743.91;2624122;54;20045;-70
2021/12/12 01:56:18;;;;;;;7.30;3.60;;;;;;;3.87;70.94;99745.19;2625210;54;20073;-68
2021/12/12 01:58:54;;;;;;;;;;;;;;;3.76;71.11;99747.88;2625081;54;20031;-68
2021/12/12 02:01:27;;;;;;;10.05;4.40;;;;;;;3.77;71.15;99763.44;2624918;54;19938;-70
2021/12/12 02:04:02;;;;;;;10.55;3.70;;;;;;;3.76;70.93;99747.88;2625405;54;20624;-69
2021/12/12 02:06:34;;;;;;;9.88;3.95;;;;;;;3.70;71.20;99741.34;2625811;54;20041;-68
2021/12/12 02:09:06;;;;;;;10.35;3.45;;;;;;;3.64;70.96;99747.91;2624171;54;20035;-69
2021/12/12 02:11:37;;;;;;;9.52;3.35;;;;;;;3.64;71.51;99750.53;2625331;54;20042;-72
2021/12/12 02:14:17;;;;;;;6.45;2.80;;;;;;;3.64;71.25;99747.91;2625102;54;20038;-69
2021/12/12 02:16:51;;;;;;;8.32;3.40;;;;;;;3.67;71.49;99746.81;2625258;54;20030;-70
2021/12/12 02:19:30;;;;;;;12.00;3.60;;;;;;;3.71;71.34;99748.22;2626730;39;20325;-71
2021/12/12 02:22:09;;;;;;;6.75;3.42;;;;;;;3.68;71.25;99746.72;2624374;47;20034;-70
2021/12/12 02:35:43;;;;;;;8.50;3.05;;;;;;;3.61;71.03;99742.94;2625315;54;20022;-70
2021/12/12 02:38:15;;;;;;;11.10;3.47;;;;;;;3.57;71.45;99745.91;2625800;54;20031;-70
2021/12/12 02:40:51;;;;;;;9.10;3.38;;;;;;;3.56;71.37;99750.31;2625863;54;20030;-70
2021/12/12 02:43:22;;;;;;;11.38;2.97;;;;;;;3.50;71.15;99745.56;2625879;39;20473;-69
2021/12/12 02:45:56;;;;;;;11.27;3.30;;;;;;;3.48;71.28;99745.72;2624904;54;20565;-69
2021/12/12 02:48:28;;;;;;;5.57;3.47;;;;;;;3.45;71.53;99747.75;2626012;54;20134;-70
2021/12/12 02:51:01;;;;;;;9.68;3.10;;;;;;;3.51;71.43;99756.88;2624091;47;20034;-70
2021/12/12 02:53:34;;;;;;;11.65;3.58;;;;;;;3.46;71.39;99759.84;2625553;54;20034;-70
2021/12/12 02:56:10;;;;;;;8.73;3.60;;;;;;;3.43;71.50;99755.72;2626348;54;20025;-71
2021/12/12 02:58:42;;;;;;;7.05;2.97;;;;;;;3.42;71.86;99754.03;2625005;47;20030;-72
2021/12/12 03:01:17;;;;;;;7.95;3.00;;;;;;;3.48;71.79;99761.41;2625435;54;20026;-70
2021/12/12 03:03:48;;;;;;;;;;;;;;;3.47;71.48;99756.31;2625922;39;20465;-71
2021/12/12 03:06:21;;;;;;;12.02;3.20;;;;;;;3.42;71.66;99754.03;2624553;54;19958;-70
2021/12/12 03:08:56;;;;;;;7.78;3.03;;;;;;;3.39;71.65;99756.91;2620738;54;20744;-69
2021/12/12 03:11:28;;;;;;;10.93;3.40;;;;;;;3.30;71.83;99762.88;2620711;54;20580;-70
2021/12/12 03:13:59;;;;;;;9.35;3.00;;;;;;;3.28;71.76;99753.50;2621649;54;20549;-71
2021/12/12 03:16:29;;;;;;;11.23;2.88;;;;;;;3.28;71.93;99740.44;2621654;39;20430;-71
2021/12/12 03:18:59;;;;;;;10.23;3.60;;;;;;;3.28;71.68;99737.81;2621625;54;20118;-69
2021/12/12 03:21:32;;;;;;;11.13;3.50;;;;;;;3.29;72.02;99750.75;2619544;47;20037;-71
2021/12/12 03:24:09;;;;;;;7.45;2.95;;;;;;;3.28;71.87;99743.88;2620008;54;20025;-70
2021/12/12 03:26:45;;;;;;;7.28;3.22;;;;;;;3.18;71.81;99749.03;2624498;54;20034;-70
2021/12/12 03:29:14;;;;;;;10.23;3.78;;;;;;;3.12;72.19;99752.09;2625346;54;20046;-70
2021/12/12 03:31:49;;;;;;;14.35;3.53;;;;;;;3.06;72.15;99750.00;2624710;54;20034;-70
2021/12/12 03:34:24;;;;;;;8.25;2.53;;;;;;;3.00;72.49;99754.84;2624728;54;20066;-70
2021/12/12 03:36:54;;;;;;;10.57;3.05;;;;;;;2.98;72.58;99758.44;2625136;54;20046;-70
2021/12/12 03:39:27;;;;;;;10.93;3.10;;;;;;;3.00;72.74;99754.84;2624766;54;20030;-70
2021/12/12 03:42:05;;;;;;;5.72;2.75;;;;;;;2.98;72.70;99755.00;2624313;54;20042;-70
2021/12/12 03:44:38;;;;;;;7.25;2.47;;;;;;;3.00;72.50;99755.69;2623667;54;20042;-70
2021/12/12 03:47:13;;;;;;;7.10;2.28;;;;;;;2.97;72.83;99750.69;2623942;54;20114;-70
2021/12/12 03:49:43;;;;;;;6.70;2.92;;;;;;;3.02;72.79;99750.34;2623988;54;20033;-71
2021/12/12 03:52:16;;;;;;;8.30;2.72;;;;;;;3.06;72.90;99749.13;2624307;47;20027;-70
2021/12/12 03:54:47;;;;;;;8.63;3.00;;;;;;;3.12;72.68;99752.09;2622809;54;20037;-69
2021/12/12 03:57:23;;;;;;;8.93;2.88;;;;;;;3.18;72.40;99754.25;2623014;39;20403;-68
2021/12/12 03:59:52;;;;;;;10.75;2.70;;;;;;;3.15;72.20;99749.25;2622253;47;20042;-69
2021/12/12 04:02:23;;;;;;;5.65;2.80;;;;;;;3.11;72.22;99755.69;2622188;47;20026;-69
2021/12/12 04:04:53;;;;;;;7.50;2.75;;;;;;;3.11;72.26;99752.25;2622898;54;20022;-69
2021/12/12 04:07:25;;;;;;;5.28;2.47;;;;;;;3.10;72.83;99754.03;2619911;47;20553;-70
2021/12/12 04:09:56;;;;;;;11.52;3.58;;;;;;;3.08;72.60;99739.41;2620113;54;20042;-69
2021/12/12 04:12:29;;;;;;;10.98;2.95;;;;;;;3.08;72.99;99750.69;2620957;39;20395;-69
2021/12/12 04:15:00;;;;;;;7.03;2.78;;;;;;;3.16;72.81;99750.91;2620916;54;20038;-69
2021/12/12 04:17:31;;;;;;;9.25;2.70;;;;;;;3.20;72.65;99751.50;2623856;54;20027;-69
2021/12/12 04:20:09;;;;;;;9.13;2.80;;;;;;;3.17;72.28;99752.56;2625291;47;20604;-69
2021/12/12 04:22:39;;;;;;;9.20;3.00;;;;;;;3.19;72.53;99752.47;2624234;54;20030;-69
2021/12/12 04:25:10;;;;;;;7.30;2.58;;;;;;;3.17;72.62;99762.19;2624180;54;20062;-69
2021/12/12 04:27:43;;;;;;;6.80;2.50;;;;;;;3.09;72.42;99756.75;2624130;51;20592;-69
2021/12/12 04:30:15;;;;;;;6.78;2.40;;;;;;;3.07;72.60;99756.88;2624623;54;20111;-69
2021/12/12 04:32:47;;;;;;;7.40;2.45;;;;;;;3.15;72.59;99758.88;2623568;54;20049;-69
2021/12/12 04:35:22;;;;;;;6.30;2.33;;;;;;;3.15;72.30;99759.72;2624256;54;20569;-69
2021/12/12 04:37:52;;;;;;;7.25;2.28;;;;;;;3.21;72.23;99768.81;2624356;54;20026;-69
2021/12/12 04:40:25;;;;;;;6.95;2.30;;;;;;;3.25;72.50;99758.97;2624887;54;20038;-69
2021/12/12 04:42:59;;;;;;;8.82;2.80;;;;;;;3.23;72.04;99770.38;2625424;54;20030;-69
2021/12/12 04:45:43;;;;;;;5.63;2.22;;;;;;;3.28;72.29;99771.78;2621657;47;20030;-69
2021/12/12 04:51:11;;;;;;;8.82;3.00;;;;;;;3.39;72.09;99767.38;2623905;39;20367;-68
2021/12/12 04:53:48;;;;;;;9.88;2.60;;;;;;;3.45;71.70;99772.09;2625627;54;20038;-69
2021/12/12 04:56:22;;;;;;;10.75;2.97;;;;;;;3.44;71.88;99765.22;2624670;39;20414;-70
2021/12/12 04:59:01;;;;;;;4.70;2.30;;;;;;;3.44;71.83;99767.00;2623280;54;20034;-69
2021/12/12 05:01:37;;;;;;;11.00;2.22;;;;;;;3.52;71.90;99769.81;2623465;54;20049;-69
2021/12/12 05:04:12;;;;;;;9.40;2.35;;;;;;;3.54;71.76;99769.69;2619539;54;20041;-70
2021/12/12 05:06:45;;;;;;;8.68;2.45;;;;;;;3.47;71.34;99772.81;2618664;54;20031;-69
2021/12/12 05:09:23;;;;;;;10.13;2.15;;;;;;;3.45;71.06;99764.25;2619291;54;20038;-68
2021/12/12 05:11:59;;;;;;;4.97;2.40;;;;;;;3.42;71.48;99768.91;2619747;54;20565;-70
2021/12/12 05:14:38;;;;;;;6.90;2.05;;;;;;;3.42;71.28;99763.66;2619249;47;20090;-69
2021/12/12 05:17:12;;;;;;;4.93;2.28;;;;;;;3.37;71.37;99778.91;2618217;47;20023;-69
2021/12/12 05:19:48;;;;;;;8.40;2.30;;;;;;;3.41;71.29;99767.25;2618440;54;20026;-68
2021/12/12 05:22:22;;;;;;;7.22;2.40;;;;;;;3.45;71.11;99781.72;2618251;54;20038;-68
2021/12/12 05:24:55;;;;;;;6.88;2.53;;;;;;;3.54;71.46;99788.00;2618337;47;20085;-68
2021/12/12 05:27:27;;;;;;;5.63;2.53;;;;;;;3.58;70.88;99785.00;2618137;54;20026;-68
2021/12/12 05:30:03;;;;;;;6.88;2.60;;;;;;;3.61;71.07;99784.75;2619237;39;20406;-69
2021/12/12 05:32:35;;;;;;;5.55;2.30;;;;;;;3.67;71.05;99796.50;2618303;54;20053;-69
2021/12/12 05:35:09;;;;;;;5.68;2.00;;;;;;;3.63;70.68;99795.94;2618634;39;20426;-68
2021/12/12 05:37:39;;;;;;;;;;;;;;;3.64;70.69;99797.59;2619146;54;20042;-68
2021/12/12 05:40:12;;;;;;;8.15;2.20;;;;;;;3.62;70.42;99799.50;2618740;54;19946;-68
2021/12/12 05:42:42;;;;;;;6.68;2.15;;;;;;;3.61;70.70;99799.63;2618738;54;20038;-69
2021/12/12 05:45:16;;;;;;;7.47;2.50;;;;;;;3.60;70.42;99801.41;2618919;54;20026;-69
2021/12/12 05:47:47;;;;;;;7.22;2.13;;;;;;;3.62;70.50;99807.34;2618752;54;20065;-70
2021/12/12 05:50:19;;;;;;;6.68;2.33;;;;;;;3.66;70.48;99807.94;2619074;54;20077;-68
2021/12/12 05:52:54;;;;;;;7.68;3.22;;;;;;;3.65;70.29;99817.56;2618623;54;20074;-69
2021/12/12 05:55:26;;;;;;;7.22;2.00;;;;;;;3.61;70.37;99813.53;2618666;54;20022;-69
2021/12/12 05:57:57;;;;;;;8.77;1.80;;;;;;;3.61;70.36;99820.53;2619514;39;20405;-68
2021/12/12 06:00:32;;;;;;;5.40;1.90;;;;;;;3.61;70.61;99817.94;2618188;54;20038;-70
2021/12/12 06:03:04;;;;;;;5.57;2.10;;;;;;;3.61;70.45;99820.53;2618087;47;20126;-69
2021/12/12 06:05:34;;;;;;;5.70;2.20;;;;;;;3.56;70.44;99813.06;2618686;54;20133;-70
2021/12/12 06:08:05;;;;;;;4.65;1.98;;;;;;;3.53;70.10;99813.31;2618245;47;20023;-70
2021/12/12 06:10:37;;;;;;;5.95;1.88;;;;;;;3.54;70.55;99814.13;2618690;54;20038;-69
2021/12/12 06:13:13;;;;;;;5.13;2.00;;;;;;;3.55;70.35;99818.41;2618773;54;20025;-69
2021/12/12 06:15:49;;;;;;;3.90;2.10;;;;;;;3.62;70.66;99814.34;2619328;39;20438;-69
2021/12/12 06:18:20;;;;;;;9.57;2.33;;;;;;;3.55;69.73;99827.09;2618370;46;20034;-69
2021/12/12 06:20:50;;;;;;;5.90;2.10;;;;;;;3.55;70.13;99824.50;2619459;39;20411;-69
2021/12/12 06:23:22;;;;;;;6.95;2.65;;;;;;;3.60;70.39;99829.34;2617948;47;20113;-69
2021/12/12 06:25:53;;;;;;;4.95;1.75;;;;;;;3.60;70.20;99824.94;2619571;54;20046;-69
2021/12/12 06:28:25;;;;;;;8.02;2.25;;;;;;;3.61;70.27;99834.44;2619319;54;20019;-69
2021/12/12 06:30:59;;;;;;;7.18;2.35;;;;;;;3.61;70.30;99837.06;2619260;54;20037;-68
2021/12/12 06:33:31;;;;;;;9.27;2.13;;;;;;;3.61;69.98;99825.78;2618164;54;20149;-69
2021/12/12 06:36:01;;;;;;;10.50;2.70;;;;;;;3.63;70.28;99826.47;2618517;54;20022;-68
2021/12/12 06:38:31;;;;;;;5.47;2.17;;;;;;;3.64;70.03;99822.91;2619294;54;20510;-68
2021/12/12 06:41:01;;;;;;;5.22;1.98;;;;;;;3.64;69.83;99831.59;2618086;54;20026;-68
2021/12/12 06:43:33;;;;;;;5.35;2.25;;;;;;;3.63;69.85;99832.56;2618162;54;20530;-69
2021/12/12 06:46:06;;;;;;;5.90;1.90;;;;;;;3.65;69.92;99833.25;2618604;54;20037;-68
2021/12/12 06:48:37;;;;;;;8.73;2.40;;;;;;;3.65;70.04;99829.81;2617892;47;20038;-71
2021/12/12 06:51:07;;;;;;;10.38;2.35;;;;;;;3.62;70.07;99825.66;2618100;46;20046;-68
2021/12/12 06:53:39;;;;;;;6.72;1.90;;;;;;;3.67;70.00;99825.28;2618737;54;20549;-69
2021/12/12 06:56:11;;;;;;;7.22;2.40;;;;;;;3.63;70.11;99827.31;2618657;54;20050;-69
2021/12/12 06:58:41;;;;;;;14.55;3.08;;;;;;;3.64;70.10;99830.75;2618674;54;20038;-69
2021/12/12 07:01:19;;;;;;;9.88;2.45;;;;;;;3.62;69.62;99837.88;2618715;54;20038;-69
2021/12/12 07:03:50;;;;;;;6.70;2.25;;;;;;;3.67;70.02;99833.97;2618424;47;20090;-68
2021/12/12 07:06:22;;;;;;;9.70;2.35;;;;;;;3.67;69.88;99838.34;2618172;47;20026;-69
2021/12/12 07:08:54;;;;;;;7.25;2.20;;;;;;;3.66;69.52;99834.91;2618552;54;20534;-70
2021/12/12 07:11:27;;;;;;;6.90;2.70;;;;;;;3.74;70.07;99834.28;2618933;54;20039;-69
2021/12/12 07:13:57;;;;;;;6.00;2.00;;;;;;;3.76;69.57;99835.00;2618225;54;20601;-71
2021/12/12 07:16:31;;;;;;;5.15;2.22;;;;;;;3.80;69.83;99832.97;2618864;54;20038;-71
2021/12/12 07:19:01;;;;;;;6.82;2.17;;;;;;;3.86;69.84;99835.09;2619273;39;20481;-70
2021/12/12 07:21:31;;;;;;;7.95;2.33;;;;;;;3.91;69.33;99832.91;2618403;46;20030;-70
2021/12/12 07:24:02;;;;;;;9.38;2.45;;;;;;;3.92;69.64;99832.81;2618319;46;20045;-70
2021/12/12 07:26:33;;;;;;;3.80;1.55;;;;;;;3.94;69.17;99832.69;2618799;54;20061;-70
2021/12/12 07:29:04;;;;;;;6.80;2.78;;;;;;;3.96;69.36;99841.25;2618668;47;20026;-69
2021/12/12 07:31:39;;;;;;;5.68;2.22;;;;;;;3.99;69.43;99833.13;2618294;54;20031;-69
2021/12/12 07:34:10;;;;;;;;;;;;;;;4.03;69.29;99839.78;2619210;54;20030;-69
2021/12/12 07:36:44;;;;;;;3.88;1.90;;;;;;;3.98;68.78;99840.16;2618102;54;19946;-69
2021/12/12 07:39:16;;;;;;;6.28;2.30;;;;;;;3.94;69.24;99841.34;2619056;54;20046;-69
2021/12/12 07:41:50;;;;;;;5.68;2.03;;;;;;;3.91;68.86;99840.75;2619950;39;20446;-69
2021/12/12 07:44:23;;;;;;;6.35;2.05;;;;;;;3.88;69.14;99844.47;2619110;54;20542;-70
2021/12/12 07:46:57;;;;;;;7.32;2.40;;;;;;;3.94;69.17;99843.97;2619307;54;20056;-68
2021/12/12 07:49:31;;;;;;;5.05;1.88;;;;;;;3.91;69.54;99841.59;2618849;54;20030;-69
2021/12/12 07:52:01;;;;;;;8.05;2.30;;;;;;;3.96;69.23;99849.09;2618572;39;20453;-69
2021/12/12 07:54:31;;;;;;;5.13;1.92;;;;;;;4.00;69.40;99842.66;2619085;54;20038;-68
2021/12/12 07:57:01;;;;;;;6.65;2.17;;;;;;;3.94;69.66;99843.16;2619045;54;20038;-69
2021/12/12 07:59:31;;;;;;;6.05;2.20;;;;;;;3.93;69.42;99851.94;2621124;54;20046;-68
2021/12/12 08:02:05;;;;;;;3.03;1.52;;;;;;;3.95;69.43;99847.41;2622004;54;20043;-69
2021/12/12 08:04:36;;;;;;;7.28;2.22;;;;;;;3.95;69.78;99856.09;2621353;54;20078;-69
2021/12/12 08:07:09;;;;;;;10.00;3.03;;;;;;;3.99;69.61;99854.06;2619728;54;20027;-70
2021/12/12 08:09:42;;;;;;;7.83;2.53;;;;;;;4.04;69.49;99844.06;2619576;54;20042;-69
2021/12/12 08:12:13;;;;;;;7.07;2.67;;;;;;;4.05;69.76;99855.38;2618842;54;20041;-69
2021/12/12 08:14:43;;;;;;;5.53;2.30;;;;;;;4.12;69.63;99853.88;2618465;54;20038;-68
2021/12/12 08:17:19;;;;;;;11.23;3.05;;;;;;;4.18;69.77;99861.25;2619212;54;20038;-69
2021/12/12 08:19:50;;;;;;;5.88;2.25;;;;;;;4.09;68.93;99870.69;2619245;54;20030;-70
2021/12/12 08:22:20;;;;;;;7.63;2.10;;;;;;;4.08;69.21;99881.25;2618764;54;20061;-70
2021/12/12 08:24:52;;;;;;;8.15;2.65;;;;;;;4.09;69.64;99869.84;2620311;54;20031;-70
2021/12/12 08:27:22;;;;;;;2.92;2.08;;;;;;;4.13;69.28;99881.75;2621225;54;20074;-69
2021/12/12 08:29:52;;;;;;;7.50;2.42;;;;;;;4.21;69.24;99882.75;2620912;54;20046;-69
2021/12/12 08:32:26;;;;;;;9.45;2.53;;;;;;;4.27;69.38;99888.44;2618281;54;20038;-69
2021/12/12 08:35:11;;;;;;;4.03;2.15;;;;;;;4.34;69.23;99879.97;2618287;54;20080;-70
2021/12/12 08:37:43;;;;;;;5.45;2.38;;;;;;;4.38;68.91;99880.56;2621843;46;20049;-70
2021/12/12 08:40:18;;;;;;;6.38;2.83;;;;;;;4.44;68.99;99880.84;2622587;54;20031;-69
2021/12/12 08:42:49;;;;;;;12.13;2.80;;;;;;;4.47;68.49;99885.84;2620135;39;20504;-69
2021/12/12 08:45:24;;;;;;;10.25;3.05;;;;;;;4.50;69.02;99878.72;2618943;54;20034;-69
2021/12/12 08:47:58;;;;;;;6.25;2.53;;;;;;;4.48;68.55;99878.81;2619350;54;20030;-69
2021/12/12 08:50:31;;;;;;;10.43;4.85;;;;;;;4.47;68.29;99883.22;2620216;54;20031;-69
2021/12/12 08:53:03;;;;;;;4.75;2.65;;;;;;;4.46;68.23;99894.66;2619039;54;20045;-70
2021/12/12 08:55:36;;;;;;;7.30;2.92;;;;;;;4.49;68.41;99898.84;2622054;39;20476;-70
2021/12/12 08:58:19;;;;;;;7.70;3.05;;;;;;;4.47;68.40;99898.94;2619634;54;20050;-70
2021/12/12 09:00:53;;;;;;;5.75;2.55;;;;;;;4.55;68.33;99902.72;2619491;54;20045;-69
2021/12/12 09:03:29;;;;;;;7.35;2.25;;;;;;;4.58;68.05;99894.63;2618785;54;20057;-70
2021/12/12 09:05:59;;;;;;;7.05;2.63;;;;;;;4.53;67.60;99889.75;2620210;54;20066;-69
2021/12/12 09:08:42;;;;;;;5.70;2.25;;;;;;;4.48;67.97;99890.13;2620750;54;20145;-68
2021/12/12 09:11:19;;;;;;;5.70;2.93;;;;;;;4.57;67.90;99903.41;2619718;54;20034;-71
2021/12/12 09:13:56;;;;;;;9.57;3.05;;;;;;;4.67;68.08;99897.28;2619346;54;20299;-70
2021/12/12 09:16:31;;;;;;;8.27;2.30;;;;;;;4.74;67.87;99902.84;2618862;47;20037;-69
2021/12/12 09:19:09;;;;;;;10.43;3.22;;;;;;;4.75;67.31;99907.13;2619192;54;20045;-69
2021/12/12 09:21:49;;;;;;;6.55;2.75;;;;;;;4.86;67.49;99901.00;2618794;47;20034;-70
2021/12/12 09:24:29;;;;;;;6.45;3.22;;;;;;;4.86;67.02;99898.38;2619248;54;20026;-69
2021/12/12 09:27:03;;;;;;;8.20;2.80;;;;;;;4.80;66.94;99906.75;2619831;54;20559;-70
2021/12/12 09:29:37;;;;;;;;;;;;;;;4.80;67.14;99904.94;2620192;54;20042;-70
2021/12/12 09:32:13;;;;;;;5.17;2.50;;;;;;;4.86;67.63;99893.13;2619704;54;19939;-70
2021/12/12 09:34:55;;;;;;;6.07;3.03;;;;;;;4.91;67.34;99888.34;2620022;54;20031;-70
2021/12/12 09:37:37;;;;;;;9.88;3.08;;;;;;;4.94;67.52;99888.91;2621204;47;20037;-71
2021/12/12 09:40:18;;;;;;;5.47;2.42;;;;;;;4.85;66.95;99892.28;2620983;54;20031;-70
2021/12/12 09:43:13;;;;;;;9.25;3.75;;;;;;;4.77;67.15;99893.88;2619069;54;20042;-70
2021/12/12 09:46:19;;;;;;;8.35;3.25;;;;;;;4.77;67.11;99902.56;2619905;54;20560;-68
2021/12/12 09:52:25;;;;;;;8.32;2.75;;;;;;;4.86;67.37;99890.53;2618755;46;20027;-70
2021/12/12 09:55:02;;;;;;;9.05;3.50;;;;;;;4.88;67.12;99892.03;2619483;54;20038;-68
2021/12/12 09:57:40;;;;;;;9.77;3.35;;;;;;;4.91;67.01;99878.69;2619372;54;20026;-69
2021/12/12 10:00:19;;;;;;;8.23;3.30;;;;;;;4.94;66.99;99888.91;2619323;54;20027;-70
2021/12/12 10:03:08;;;;;;;8.70;3.58;;;;;;;5.02;67.26;99890.88;2618784;54;20042;-68
2021/12/12 10:05:51;;;;;;;13.93;4.40;;;;;;;5.11;66.98;99895.34;2618362;54;20030;-70
2021/12/12 10:08:36;;;;;;;8.43;4.07;;;;;;;5.07;67.12;99893.94;2618304;47;20081;-70
2021/12/12 10:11:10;;;;;;;10.57;3.20;;;;;;;5.10;66.96;99893.69;2617931;47;20074;-69
2021/12/12 10:13:44;;;;;;;10.00;3.80;;;;;;;5.13;66.50;99896.03;2618781;54;20039;-69
2021/12/12 10:16:21;;;;;;;9.13;2.65;;;;;;;5.09;66.61;99888.56;2618966;54;20166;-69
2021/12/12 10:19:01;;;;;;;9.45;3.90;;;;;;;5.15;67.11;99890.66;2618623;47;20027;-70
2021/12/12 10:21:38;;;;;;;12.77;4.97;;;;;;;5.14;66.99;99874.09;2618253;47;20038;-70
2021/12/12 10:24:23;;;;;;;9.77;3.30;;;;;;;5.17;66.82;99871.19;2618612;54;20034;-69
2021/12/12 10:27:02;;;;;;;8.30;3.08;;;;;;;5.16;67.31;99871.34;2618938;47;20029;-69
2021/12/12 10:29:40;;;;;;;11.30;3.72;;;;;;;5.15;67.33;99875.75;2619066;54;20042;-70
2021/12/12 10:32:15;;;;;;;8.90;2.85;;;;;;;5.17;67.53;99865.13;2618416;54;20042;-69
2021/12/12 10:34:48;;;;;;;9.55;3.10;;;;;;;5.16;67.32;99859.06;2617961;47;20026;-69
2021/12/12 10:37:23;;;;;;;10.80;3.70;;;;;;;5.16;68.16;99860.84;2619194;54;20617;-69
2021/12/12 10:40:02;;;;;;;10.15;3.58;;;;;;;5.21;68.18;99851.63;2618692;54;20057;-70
2021/12/12 10:42:36;;;;;;;10.93;3.55;;;;;;;5.26;67.86;99855.63;2617979;54;20541;-70
2021/12/12 10:45:10;;;;;;;7.28;3.00;;;;;;;5.30;67.84;99847.38;2618278;47;20053;-69
2021/12/12 10:47:55;;;;;;;11.68;3.55;;;;;;;5.23;68.10;99846.28;2618322;54;20157;-70
2021/12/12 10:50:32;;;;;;;13.07;3.10;;;;;;;5.19;68.17;99845.69;2618185;54;20027;-68
2021/12/12 10:53:09;;;;;;;7.57;3.42;;;;;;;5.28;68.29;99843.25;2618260;47;20549;-70
2021/12/12 10:55:47;;;;;;;6.32;2.80;;;;;;;5.42;68.35;99833.19;2619247;31;20463;-69
2021/12/12 10:58:22;;;;;;;11.20;3.17;;;;;;;5.46;68.30;99829.34;2618447;54;20038;-69
2021/12/12 11:00:55;;;;;;;8.50;3.28;;;;;;;5.52;68.24;99845.53;2618532;54;20078;-70
2021/12/12 11:31:26;;;;;;;7.53;3.45;;;;;;;5.41;70.35;99844.66;2581653;39;21135;31
2021/12/12 11:33:58;;;;;;;10.27;3.75;;;;;;;5.38;70.81;99836.22;2617637;54;20038;-70
2021/12/12 11:36:32;;;;;;;11.63;3.58;;;;;;;5.37;71.06;99842.44;2617635;51;20061;-69
2021/12/12 11:39:07;;;;;;;;;;;;;;;5.34;71.16;99838.28;2618653;54;20042;-70
2021/12/12 11:41:45;;;;;;;8.57;3.20;;;;;;;5.37;71.53;99840.63;2618561;54;19939;-67
2021/12/12 11:44:22;;;;;;;6.55;2.83;;;;;;;5.46;71.25;99836.38;2620474;39;20414;-68
2021/12/12 11:46:58;;;;;;;10.13;2.97;;;;;;;5.47;71.16;99833.63;2619167;47;20560;-68
2021/12/12 11:49:42;;;;;;;12.45;3.97;;;;;;;5.48;71.43;99837.09;2618355;54;20138;-69
2021/12/12 11:52:17;;;;;;;10.25;3.70;;;;;;;5.55;71.51;99825.09;2618401;54;20045;-68
2021/12/12 11:54:57;;;;;;;9.77;4.43;;;;;;;5.64;71.77;99826.09;2618621;54;20038;-67
2021/12/12 11:57:30;;;;;;;8.48;5.18;;;;;;;5.75;71.83;99822.47;2618453;54;20046;-68
2021/12/12 12:00:08;;;;;;;8.05;3.42;;;;;;;5.71;71.33;99830.66;2618732;54;20783;-69
2021/12/12 12:02:44;;;;;;;8.50;3.38;;;;;;;5.67;71.88;99825.78;2618431;54;20129;-69
2021/12/12 12:05:34;;;;;;;5.43;2.75;;;;;;;5.75;71.59;99827.72;2618542;46;20042;-69
2021/12/12 12:08:14;;;;;;;9.32;3.80;;;;;;;5.69;71.88;99826.50;2618535;39;20418;-69
2021/12/12 12:10:55;;;;;;;16.10;6.00;;;;;;;5.71;71.88;99814.06;2618674;39;20415;-70
2021/12/12 12:13:46;;;;;;;12.13;5.28;;;;;;;5.72;72.08;99810.50;2617525;54;20056;-69
2021/12/12 12:16:27;;;;;;;31.90;13.80;;;;;;;5.66;72.53;99821.50;2618162;54;20037;-68
2021/12/12 12:19:07;;;;;;;40.30;18.02;;;;;;;5.73;72.58;99812.13;2618802;39;20474;-68
2021/12/12 12:21:43;;;;;;;10.52;5.30;;;;;;;5.67;72.70;99803.03;2617843;54;20027;-67
2021/12/12 12:24:22;;;;;;;10.38;4.40;;;;;;;5.65;72.61;99809.38;2617621;47;20059;-67
2021/12/12 12:27:02;;;;;;;9.45;4.82;;;;;;;5.60;73.05;99814.19;2617650;54;20030;-67
2021/12/12 12:30:20;;;;;;;8.68;4.90;;;;;;;5.62;73.14;99807.84;2618891;39;20434;-67
2021/12/12 12:33:31;;;;;;;8.55;4.20;;;;;;;5.63;73.53;99806.88;2616981;47;20046;-68
2021/12/12 12:36:40;;;;;;;8.02;3.85;;;;;;;5.64;74.11;99805.91;2618390;54;20029;-68
2021/12/12 12:39:48;;;;;;;9.50;4.45;;;;;;;5.71;74.13;99807.03;2618464;54;20042;-69
2021/12/12 12:42:48;;;;;;;9.27;3.60;;;;;;;5.74;74.17;99800.66;2617223;54;20049;-68
2021/12/12 12:45:48;;;;;;;9.00;4.22;;;;;;;5.78;74.37;99803.84;2621560;54;20046;-67
2021/12/12 12:48:48;;;;;;;7.90;4.47;;;;;;;5.90;74.08;99808.00;2622866;39;20454;-69
2021/12/12 12:51:28;;;;;;;10.88;4.28;;;;;;;5.88;73.79;99802.06;2618357;54;20562;-69
2021/12/12 12:54:15;;;;;;;7.35;4.40;;;;;;;5.92;74.25;99801.69;2618601;54;20030;-68
2021/12/12 12:57:21;;;;;;;8.15;3.28;;;;;;;5.95;73.88;99808.44;2617596;47;20552;-69
2021/12/12 13:00:03;;;;;;;10.32;4.70;;;;;;;5.93;74.30;99805.13;2617859;54;20030;-68
2021/12/12 13:02:41;;;;;;;6.32;3.95;;;;;;;5.90;74.09;99811.44;2617767;54;20030;-68
2021/12/12 13:05:32;;;;;;;7.78;3.72;;;;;;;5.88;74.16;99800.28;2619013;39;20418;-69
2021/12/12 13:08:58;;;;;;;7.55;4.28;;;;;;;5.93;74.73;99805.13;2618188;54;20034;-68